createdAt,value
2023-05-15T00:00:25.556Z,29.86
2023-05-15T00:01:25.583Z,29.82
2023-05-15T00:02:25.708Z,29.80
2023-05-15T00:03:25.715Z,29.80
2023-05-15T00:04:25.667Z,29.83
2023-05-15T00:05:25.977Z,29.80
2023-05-15T00:06:25.710Z,29.85
2023-05-15T00:07:25.724Z,29.82
2023-05-15T00:08:25.761Z,29.83
2023-05-15T00:09:25.759Z,29.82
2023-05-15T00:10:25.789Z,29.83
2023-05-15T00:11:25.823Z,29.80
2023-05-15T00:12:25.853Z,29.82
2023-05-15T00:13:25.886Z,29.86
2023-05-15T00:14:25.929Z,29.76
2023-05-15T00:15:26.257Z,29.83
2023-05-15T00:16:26.037Z,29.80
2023-05-15T00:17:26.118Z,29.85
2023-05-15T00:18:26.107Z,29.83
2023-05-15T00:19:26.121Z,29.75
2023-05-15T00:20:26.139Z,29.82
2023-05-15T00:21:26.172Z,29.79
2023-05-15T00:22:26.176Z,29.80
2023-05-15T00:23:26.227Z,29.79
2023-05-15T00:24:26.277Z,29.75
2023-05-15T00:25:26.436Z,29.76
2023-05-15T00:26:26.325Z,29.75
2023-05-15T00:27:26.372Z,29.79
2023-05-15T00:28:26.417Z,29.79
2023-05-15T00:29:26.455Z,29.76
2023-05-15T00:30:26.509Z,29.79
2023-05-15T00:31:26.556Z,29.83
2023-05-15T00:32:26.561Z,29.76
2023-05-15T00:33:26.538Z,29.77
2023-05-15T00:34:26.532Z,29.77
2023-05-15T00:35:26.793Z,29.77
2023-05-15T00:36:26.605Z,29.73
2023-05-15T00:37:26.601Z,29.77
2023-05-15T00:38:26.617Z,29.79
2023-05-15T00:39:26.636Z,29.73
2023-05-15T00:40:26.659Z,29.79
2023-05-15T00:41:26.673Z,29.80
2023-05-15T00:42:26.671Z,29.76
2023-05-15T00:43:26.711Z,29.77
2023-05-15T00:44:26.737Z,29.80
2023-05-15T00:45:26.906Z,29.76
2023-05-15T00:46:26.784Z,29.74
2023-05-15T00:47:26.782Z,29.77
2023-05-15T00:48:26.745Z,29.76
2023-05-15T00:49:26.757Z,29.76
2023-05-15T00:50:26.789Z,29.74
2023-05-15T00:51:26.794Z,29.75
2023-05-15T00:52:26.804Z,29.74
2023-05-15T00:53:26.844Z,29.73
2023-05-15T00:54:26.832Z,29.77
2023-05-15T00:55:26.966Z,29.74
2023-05-15T00:56:26.886Z,29.76
2023-05-15T00:57:26.924Z,29.71
2023-05-15T00:58:26.963Z,29.79
2023-05-15T00:59:26.978Z,29.68
2023-05-15T01:00:27.017Z,29.73
2023-05-15T01:01:27.084Z,29.74
2023-05-15T01:02:27.090Z,29.71
2023-05-15T01:03:27.054Z,29.74
2023-05-15T01:04:27.071Z,29.71
2023-05-15T01:05:27.335Z,29.73
2023-05-15T01:06:27.139Z,29.74
2023-05-15T01:07:27.191Z,29.74
2023-05-15T01:08:27.182Z,29.70
2023-05-15T01:09:27.218Z,29.74
2023-05-15T01:10:27.263Z,29.67
2023-05-15T01:11:27.288Z,29.70
2023-05-15T01:12:27.307Z,29.67
2023-05-15T01:13:27.317Z,29.67
2023-05-15T01:14:27.326Z,29.71
2023-05-15T01:15:27.357Z,29.68
2023-05-15T01:16:27.372Z,29.71
2023-05-15T01:17:27.454Z,29.67
2023-05-15T01:18:27.498Z,29.68
2023-05-15T01:19:27.521Z,29.67
2023-05-15T01:20:27.442Z,29.71
2023-05-15T01:21:27.460Z,29.67
2023-05-15T01:22:27.461Z,29.64
2023-05-15T01:23:27.497Z,29.71
2023-05-15T01:24:27.504Z,29.65
2023-05-15T01:25:27.565Z,29.65
2023-05-15T01:26:27.544Z,29.64
2023-05-15T01:27:27.563Z,29.59
2023-05-15T01:28:27.545Z,29.64
2023-05-15T01:29:27.531Z,29.67
2023-05-15T01:30:27.551Z,29.64
2023-05-15T01:31:27.563Z,29.70
2023-05-15T01:32:27.626Z,29.65
2023-05-15T01:33:27.543Z,29.67
2023-05-15T01:34:27.551Z,29.65
2023-05-15T01:35:27.695Z,29.67
2023-05-15T01:36:27.579Z,29.67
2023-05-15T01:37:27.559Z,29.61
2023-05-15T01:38:27.579Z,29.67
2023-05-15T01:39:27.583Z,29.67
2023-05-15T01:40:27.604Z,29.65
2023-05-15T01:41:27.624Z,29.65
2023-05-15T01:42:27.620Z,29.68
2023-05-15T01:43:27.611Z,29.68
2023-05-15T01:44:27.609Z,29.68
2023-05-15T01:45:27.680Z,29.64
2023-05-15T01:46:29.704Z,29.65
2023-05-15T01:47:27.621Z,29.65
2023-05-15T01:48:27.600Z,29.65
2023-05-15T01:49:27.573Z,29.64
2023-05-15T01:50:27.564Z,29.64
2023-05-15T01:51:27.559Z,29.64
2023-05-15T01:52:27.569Z,29.68
2023-05-15T01:53:27.545Z,29.68
2023-05-15T01:54:27.543Z,29.65
2023-05-15T01:55:27.723Z,29.67
2023-05-15T01:56:27.544Z,29.65
2023-05-15T01:57:27.538Z,29.67
2023-05-15T01:58:27.526Z,29.64
2023-05-15T01:59:27.506Z,29.65
2023-05-15T02:00:27.519Z,29.68
2023-05-15T02:01:27.524Z,29.65
2023-05-15T02:02:27.538Z,29.65
2023-05-15T02:03:27.552Z,29.65
2023-05-15T02:04:27.487Z,29.66
2023-05-15T02:05:27.643Z,29.64
2023-05-15T02:06:27.464Z,29.66
2023-05-15T02:07:27.483Z,29.61
2023-05-15T02:08:27.450Z,29.70
2023-05-15T02:09:27.455Z,29.69
2023-05-15T02:10:27.453Z,29.67
2023-05-15T02:11:27.438Z,29.61
2023-05-15T02:12:27.437Z,29.72
2023-05-15T02:13:27.414Z,29.62
2023-05-15T02:14:27.402Z,29.63
2023-05-15T02:15:27.462Z,29.62
2023-05-15T02:16:27.425Z,29.65
2023-05-15T02:17:27.431Z,29.64
2023-05-15T02:18:27.435Z,29.64
2023-05-15T02:19:27.374Z,29.65
2023-05-15T02:20:27.375Z,29.61
2023-05-15T02:21:27.385Z,29.67
2023-05-15T02:22:27.357Z,29.65
2023-05-15T02:23:27.364Z,29.65
2023-05-15T02:24:27.368Z,29.63
2023-05-15T02:25:27.472Z,29.65
2023-05-15T02:26:27.346Z,29.64
2023-05-15T02:27:27.330Z,29.66
2023-05-15T02:28:27.329Z,29.68
2023-05-15T02:29:27.318Z,29.64
2023-05-15T02:30:27.318Z,29.61
2023-05-15T02:31:27.307Z,29.66
2023-05-15T02:32:27.346Z,29.62
2023-05-15T02:33:27.302Z,29.65
2023-05-15T02:34:27.278Z,29.66
2023-05-15T02:35:27.443Z,29.65
2023-05-15T02:36:27.272Z,29.62
2023-05-15T02:37:27.269Z,29.61
2023-05-15T02:38:27.250Z,29.64
2023-05-15T02:39:27.245Z,29.61
2023-05-15T02:40:27.238Z,29.64
2023-05-15T02:41:27.235Z,29.61
2023-05-15T02:42:27.238Z,29.61
2023-05-15T02:43:27.215Z,29.66
2023-05-15T02:44:27.205Z,29.61
2023-05-15T02:45:27.418Z,29.64
2023-05-15T02:46:27.218Z,29.62
2023-05-15T02:47:27.214Z,29.62
2023-05-15T02:48:27.202Z,29.65
2023-05-15T02:49:27.184Z,29.62
2023-05-15T02:50:27.179Z,29.58
2023-05-15T02:51:27.175Z,29.65
2023-05-15T02:52:27.168Z,29.61
2023-05-15T02:53:27.155Z,29.62
2023-05-15T02:54:27.154Z,29.65
2023-05-15T02:55:27.275Z,29.61
2023-05-15T02:56:27.131Z,29.61
2023-05-15T02:57:27.135Z,29.62
2023-05-15T02:58:27.132Z,29.58
2023-05-15T02:59:27.112Z,29.61
2023-05-15T03:00:27.104Z,29.62
2023-05-15T03:01:27.160Z,29.56
2023-05-15T03:02:27.106Z,29.56
2023-05-15T03:03:27.102Z,29.59
2023-05-15T03:04:27.117Z,29.58
2023-05-15T03:05:27.474Z,29.62
2023-05-15T03:06:27.067Z,29.64
2023-05-15T03:07:27.089Z,29.61
2023-05-15T03:08:27.104Z,29.58
2023-05-15T03:09:27.067Z,29.58
2023-05-15T03:10:27.046Z,29.59
2023-05-15T03:11:27.040Z,29.58
2023-05-15T03:12:27.029Z,29.53
2023-05-15T03:13:27.027Z,29.53
2023-05-15T03:14:27.012Z,29.55
2023-05-15T03:15:27.342Z,29.54
2023-05-15T03:16:27.096Z,29.59
2023-05-15T03:17:27.008Z,29.53
2023-05-15T03:18:26.993Z,29.56
2023-05-15T03:19:26.984Z,29.59
2023-05-15T03:20:26.964Z,29.62
2023-05-15T03:21:26.960Z,29.53
2023-05-15T03:22:26.971Z,29.57
2023-05-15T03:23:26.946Z,29.59
2023-05-15T03:24:26.965Z,29.58
2023-05-15T03:25:27.287Z,29.58
2023-05-15T03:26:26.943Z,29.53
2023-05-15T03:27:26.937Z,29.58
2023-05-15T03:28:26.949Z,29.61
2023-05-15T03:29:26.909Z,29.54
2023-05-15T03:30:26.929Z,29.60
2023-05-15T03:31:26.924Z,29.56
2023-05-15T03:32:26.910Z,29.54
2023-05-15T03:33:26.900Z,29.59
2023-05-15T03:34:26.895Z,29.56
2023-05-15T03:35:26.975Z,29.59
2023-05-15T03:36:26.870Z,29.62
2023-05-15T03:37:26.887Z,29.54
2023-05-15T03:38:26.870Z,29.55
2023-05-15T03:39:26.845Z,29.56
2023-05-15T03:40:26.854Z,29.54
2023-05-15T03:41:26.858Z,29.59
2023-05-15T03:42:26.847Z,29.57
2023-05-15T03:43:26.847Z,29.56
2023-05-15T03:44:26.822Z,29.57
2023-05-15T03:45:27.159Z,29.56
2023-05-15T03:46:26.817Z,29.54
2023-05-15T03:47:26.815Z,29.58
2023-05-15T03:48:26.793Z,29.56
2023-05-15T03:49:26.788Z,29.59
2023-05-15T03:50:26.786Z,29.53
2023-05-15T03:51:26.780Z,29.53
2023-05-15T03:52:26.791Z,29.57
2023-05-15T03:53:26.768Z,29.54
2023-05-15T03:54:26.755Z,29.54
2023-05-15T03:55:26.956Z,29.56
2023-05-15T03:56:26.749Z,29.58
2023-05-15T03:57:26.744Z,29.58
2023-05-15T03:58:26.739Z,29.53
2023-05-15T03:59:26.734Z,29.54
2023-05-15T04:00:26.984Z,29.58
2023-05-15T04:01:26.894Z,29.57
2023-05-15T04:02:26.787Z,29.59
2023-05-15T04:03:26.742Z,29.60
2023-05-15T04:04:26.715Z,29.58
2023-05-15T04:05:26.954Z,29.53
2023-05-15T04:06:26.704Z,29.57
2023-05-15T04:07:26.698Z,29.56
2023-05-15T04:08:26.688Z,29.59
2023-05-15T04:09:26.688Z,29.56
2023-05-15T04:10:26.818Z,29.53
2023-05-15T04:11:26.656Z,29.57
2023-05-15T04:12:26.648Z,29.56
2023-05-15T04:13:26.653Z,29.56
2023-05-15T04:14:26.663Z,29.56
2023-05-15T04:15:26.847Z,29.58
2023-05-15T04:16:26.683Z,29.58
2023-05-15T04:17:26.724Z,29.59
2023-05-15T04:18:26.722Z,29.53
2023-05-15T04:19:26.606Z,29.55
2023-05-15T04:20:26.608Z,29.58
2023-05-15T04:21:26.610Z,29.59
2023-05-15T04:22:26.580Z,29.58
2023-05-15T04:23:26.577Z,29.56
2023-05-15T04:24:26.587Z,29.55
2023-05-15T04:25:26.778Z,29.53
2023-05-15T04:26:26.625Z,29.55
2023-05-15T04:27:26.552Z,29.52
2023-05-15T04:28:26.860Z,29.52
2023-05-15T04:29:26.563Z,29.56
2023-05-15T04:30:26.533Z,29.54
2023-05-15T04:31:26.568Z,29.56
2023-05-15T04:32:26.558Z,29.58
2023-05-15T04:33:26.545Z,29.56
2023-05-15T04:34:26.516Z,29.59
2023-05-15T04:35:26.718Z,29.56
2023-05-15T04:36:26.536Z,29.59
2023-05-15T04:37:26.489Z,29.56
2023-05-15T04:38:26.489Z,29.56
2023-05-15T04:39:26.493Z,29.53
2023-05-15T04:40:26.480Z,29.54
2023-05-15T04:41:26.499Z,29.56
2023-05-15T04:42:26.456Z,29.58
2023-05-15T04:43:26.456Z,29.52
2023-05-15T04:44:26.441Z,29.58
2023-05-15T04:45:26.572Z,29.58
2023-05-15T04:46:26.515Z,29.56
2023-05-15T04:47:26.460Z,29.58
2023-05-15T04:48:26.428Z,29.54
2023-05-15T04:49:26.433Z,29.60
2023-05-15T04:50:26.516Z,29.59
2023-05-15T04:51:26.437Z,29.58
2023-05-15T04:52:26.398Z,29.60
2023-05-15T04:53:26.397Z,29.59
2023-05-15T04:54:26.381Z,29.58
2023-05-15T04:55:26.625Z,29.58
2023-05-15T04:56:26.409Z,29.59
2023-05-15T04:57:26.379Z,29.56
2023-05-15T04:58:26.359Z,29.59
2023-05-15T04:59:26.350Z,29.58
2023-05-15T05:00:26.334Z,29.59
2023-05-15T05:01:26.455Z,29.59
2023-05-15T05:02:26.353Z,29.65
2023-05-15T05:03:26.360Z,29.62
2023-05-15T05:04:26.336Z,29.56
2023-05-15T05:05:26.437Z,29.60
2023-05-15T05:06:26.740Z,29.65
2023-05-15T05:07:26.328Z,29.62
2023-05-15T05:08:26.290Z,29.63
2023-05-15T05:09:26.283Z,29.63
2023-05-15T05:10:26.287Z,29.62
2023-05-15T05:11:26.317Z,29.65
2023-05-15T05:12:28.056Z,29.65
2023-05-15T05:13:26.274Z,29.66
2023-05-15T05:14:26.251Z,29.59
2023-05-15T05:15:26.622Z,29.63
2023-05-15T05:16:26.344Z,29.62
2023-05-15T05:17:26.263Z,29.65
2023-05-15T05:18:26.242Z,29.63
2023-05-15T05:19:26.221Z,29.68
2023-05-15T05:20:26.231Z,29.65
2023-05-15T05:21:26.225Z,29.60
2023-05-15T05:22:26.226Z,29.63
2023-05-15T05:23:26.209Z,29.65
2023-05-15T05:24:26.213Z,29.65
2023-05-15T05:25:26.407Z,29.60
2023-05-15T05:26:26.216Z,29.63
2023-05-15T05:27:26.182Z,29.60
2023-05-15T05:28:26.186Z,29.61
2023-05-15T05:29:26.262Z,29.56
2023-05-15T05:30:26.191Z,29.65
2023-05-15T05:31:26.198Z,29.72
2023-05-15T05:32:26.173Z,29.75
2023-05-15T05:33:26.161Z,29.73
2023-05-15T05:34:26.150Z,29.80
2023-05-15T05:35:26.336Z,30.51
2023-05-15T05:36:26.144Z,30.83
2023-05-15T05:37:26.140Z,30.95
2023-05-15T05:38:26.127Z,31.09
2023-05-15T05:39:26.113Z,31.23
2023-05-15T05:40:26.120Z,31.82
2023-05-15T05:41:26.115Z,31.90
2023-05-15T05:42:26.101Z,32.18
2023-05-15T05:43:26.127Z,31.93
2023-05-15T05:44:26.171Z,31.99
2023-05-15T05:45:26.378Z,32.14
2023-05-15T05:46:26.324Z,32.01
2023-05-15T05:47:26.353Z,31.85
2023-05-15T05:48:26.371Z,31.88
2023-05-15T05:49:26.440Z,31.97
2023-05-15T05:50:26.486Z,32.03
2023-05-15T05:51:26.540Z,31.91
2023-05-15T05:52:26.593Z,31.77
2023-05-15T05:53:26.654Z,31.65
2023-05-15T05:54:26.691Z,31.79
2023-05-15T05:55:26.913Z,31.87
2023-05-15T05:56:26.810Z,31.68
2023-05-15T05:57:26.824Z,31.62
2023-05-15T05:58:26.867Z,31.61
2023-05-15T05:59:26.937Z,31.80
2023-05-15T06:00:26.978Z,32.00
2023-05-15T06:01:27.039Z,32.10
2023-05-15T06:02:27.215Z,31.96
2023-05-15T06:03:27.186Z,31.99
2023-05-15T06:04:27.281Z,31.98
2023-05-15T06:05:27.310Z,31.89
2023-05-15T06:06:27.264Z,31.90
2023-05-15T06:07:27.292Z,31.97
2023-05-15T06:08:27.325Z,31.77
2023-05-15T06:09:27.335Z,31.23
2023-05-15T06:10:27.526Z,31.32
2023-05-15T06:11:27.369Z,31.14
2023-05-15T06:12:27.659Z,31.34
2023-05-15T06:13:27.389Z,31.18
2023-05-15T06:14:27.433Z,31.12
2023-05-15T06:15:27.439Z,31.14
2023-05-15T06:16:27.456Z,31.23
2023-05-15T06:17:27.696Z,31.03
2023-05-15T06:18:27.537Z,31.05
2023-05-15T06:19:27.502Z,31.06
2023-05-15T06:20:27.640Z,31.05
2023-05-15T06:21:27.549Z,31.16
2023-05-15T06:22:27.553Z,31.21
2023-05-15T06:23:27.584Z,31.21
2023-05-15T06:24:27.596Z,31.29
2023-05-15T06:25:27.616Z,31.19
2023-05-15T06:26:27.625Z,31.05
2023-05-15T06:27:27.660Z,31.08
2023-05-15T06:28:27.670Z,31.05
2023-05-15T06:29:27.706Z,31.06
2023-05-15T06:30:27.747Z,31.18
2023-05-15T06:31:27.816Z,31.14
2023-05-15T06:32:28.154Z,31.14
2023-05-15T06:33:27.824Z,31.39
2023-05-15T06:34:27.806Z,33.02
2023-05-15T06:35:27.843Z,34.67
2023-05-15T06:36:27.830Z,33.81
2023-05-15T06:37:28.151Z,33.31
2023-05-15T06:38:27.933Z,32.91
2023-05-15T06:39:28.020Z,33.20
2023-05-15T06:40:28.266Z,33.00
2023-05-15T06:41:28.027Z,32.98
2023-05-15T06:42:28.171Z,33.12
2023-05-15T06:43:28.085Z,33.06
2023-05-15T06:44:28.087Z,33.03
2023-05-15T06:45:28.397Z,32.23
2023-05-15T06:46:28.116Z,32.28
2023-05-15T06:47:28.167Z,32.54
2023-05-15T06:48:28.173Z,31.71
2023-05-15T06:49:28.225Z,31.68
2023-05-15T06:50:28.308Z,31.85
2023-05-15T06:51:28.341Z,31.29
2023-05-15T06:52:28.338Z,31.55
2023-05-15T06:53:28.349Z,31.66
2023-05-15T06:54:28.345Z,31.55
2023-05-15T06:55:28.483Z,32.08
2023-05-15T06:56:28.396Z,31.97
2023-05-15T06:57:28.415Z,32.61
2023-05-15T06:58:28.475Z,32.25
2023-05-15T06:59:28.496Z,32.37
2023-05-15T07:00:28.542Z,32.43
2023-05-15T07:01:28.621Z,32.74
2023-05-15T07:02:28.632Z,32.79
2023-05-15T07:03:28.618Z,32.78
2023-05-15T07:04:28.669Z,32.81
2023-05-15T07:05:28.634Z,33.09
2023-05-15T07:06:28.680Z,32.93
2023-05-15T07:07:29.165Z,33.46
2023-05-15T07:08:28.766Z,33.68
2023-05-15T07:09:28.859Z,33.82
2023-05-15T07:10:28.894Z,33.78
2023-05-15T07:11:28.952Z,33.38
2023-05-15T07:12:29.167Z,33.72
2023-05-15T07:13:29.050Z,33.70
2023-05-15T07:14:29.075Z,33.94
2023-05-15T07:15:29.117Z,33.89
2023-05-15T07:16:29.150Z,33.89
2023-05-15T07:17:29.739Z,33.92
2023-05-15T07:18:29.297Z,33.92
2023-05-15T07:19:29.385Z,33.79
2023-05-15T07:20:31.741Z,34.83
2023-05-15T07:21:29.242Z,34.42
2023-05-15T07:22:29.295Z,34.14
2023-05-15T07:23:29.247Z,34.22
2023-05-15T07:24:29.217Z,33.24
2023-05-15T07:25:29.424Z,33.35
2023-05-15T07:26:36.218Z,33.89
2023-05-15T07:27:30.661Z,33.15
2023-05-15T07:28:29.188Z,32.99
2023-05-15T07:29:29.260Z,32.83
2023-05-15T07:30:29.219Z,33.00
2023-05-15T07:31:29.235Z,32.72
2023-05-15T07:32:29.195Z,33.31
2023-05-15T07:33:29.173Z,33.04
2023-05-15T07:34:29.147Z,32.83
2023-05-15T07:35:29.137Z,33.07
2023-05-15T07:36:29.137Z,32.92
2023-05-15T07:37:29.683Z,33.60
2023-05-15T07:38:29.209Z,33.67
2023-05-15T07:39:29.304Z,33.39
2023-05-15T07:40:29.275Z,33.48
2023-05-15T07:41:29.311Z,33.35
2023-05-15T07:42:29.338Z,33.54
2023-05-15T07:43:29.382Z,33.55
2023-05-15T07:44:29.386Z,33.50
2023-05-15T07:45:29.437Z,33.47
2023-05-15T07:46:29.478Z,33.55
2023-05-15T07:47:29.530Z,33.59
2023-05-15T07:48:29.504Z,33.54
2023-05-15T07:49:29.512Z,33.49
2023-05-15T07:50:29.527Z,33.49
2023-05-15T07:51:29.583Z,33.40
2023-05-15T07:52:29.690Z,33.46
2023-05-15T07:53:29.554Z,33.55
2023-05-15T07:54:29.573Z,33.37
2023-05-15T07:55:29.571Z,33.48
2023-05-15T07:56:29.615Z,33.68
2023-05-15T07:57:29.606Z,33.74
2023-05-15T07:58:29.709Z,33.55
2023-05-15T07:59:29.727Z,33.54
2023-05-15T08:00:29.687Z,33.77
2023-05-15T08:01:31.370Z,33.82
2023-05-15T08:02:29.749Z,33.92
2023-05-15T08:03:29.739Z,33.80
2023-05-15T08:04:29.691Z,33.68
2023-05-15T08:05:29.663Z,33.76
2023-05-15T08:06:29.649Z,33.85
2023-05-15T08:07:29.647Z,33.75
2023-05-15T08:08:29.637Z,33.85
2023-05-15T08:09:29.632Z,33.84
2023-05-15T08:10:29.610Z,33.93
2023-05-15T08:11:29.610Z,33.92
2023-05-15T08:12:29.601Z,33.81
2023-05-15T08:13:29.590Z,33.85
2023-05-15T08:14:29.633Z,33.87
2023-05-15T08:15:29.596Z,33.88
2023-05-15T08:16:29.750Z,33.79
2023-05-15T08:17:29.797Z,33.79
2023-05-15T08:18:29.603Z,33.74
2023-05-15T08:19:29.583Z,33.78
2023-05-15T08:20:29.569Z,33.57
2023-05-15T08:21:29.559Z,33.61
2023-05-15T08:22:29.673Z,33.52
2023-05-15T08:23:29.538Z,33.40
2023-05-15T08:24:29.561Z,33.36
2023-05-15T08:25:29.524Z,33.66
2023-05-15T08:26:29.512Z,32.89
2023-05-15T08:27:29.518Z,33.07
2023-05-15T08:28:29.505Z,33.33
2023-05-15T08:29:29.494Z,33.44
2023-05-15T08:30:29.494Z,33.41
2023-05-15T08:31:29.502Z,33.34
2023-05-15T08:32:29.531Z,33.64
2023-05-15T08:33:29.534Z,34.05
2023-05-15T08:34:29.449Z,33.90
2023-05-15T08:35:29.494Z,33.92
2023-05-15T08:36:29.463Z,33.72
2023-05-15T08:37:29.675Z,33.40
2023-05-15T08:38:29.417Z,33.52
2023-05-15T08:39:29.427Z,32.26
2023-05-15T08:41:40.012Z,32.34
2023-05-15T08:42:32.747Z,32.14
2023-05-15T08:43:29.416Z,31.99
2023-05-15T08:44:29.400Z,32.18
2023-05-15T08:45:29.382Z,32.17
2023-05-15T08:46:29.424Z,33.92
2023-05-15T08:47:29.683Z,32.80
2023-05-15T08:48:29.463Z,33.07
2023-05-15T08:49:29.385Z,33.28
2023-05-15T08:50:29.375Z,33.18
2023-05-15T08:51:29.387Z,33.13
2023-05-15T08:52:29.377Z,33.30
2023-05-15T08:53:29.694Z,33.35
2023-05-15T08:54:29.342Z,33.41
2023-05-15T08:55:29.347Z,33.29
2023-05-15T08:56:29.353Z,33.30
2023-05-15T08:57:29.409Z,33.44
2023-05-15T08:58:29.473Z,33.37
2023-05-15T08:59:29.514Z,33.34
2023-05-15T09:00:29.560Z,33.48
2023-05-15T09:01:29.615Z,33.38
2023-05-15T09:02:29.684Z,33.27
2023-05-15T09:03:29.818Z,33.30
2023-05-15T09:04:29.729Z,33.33
2023-05-15T09:05:29.754Z,33.29
2023-05-15T09:06:29.797Z,33.25
2023-05-15T09:07:29.831Z,33.17
2023-05-15T09:08:29.861Z,33.14
2023-05-15T09:09:29.864Z,33.20
2023-05-15T09:10:29.904Z,33.22
2023-05-15T09:11:29.919Z,33.22
2023-05-15T09:12:29.923Z,33.15
2023-05-15T09:13:29.950Z,33.05
2023-05-15T09:14:29.952Z,33.01
2023-05-15T09:15:29.994Z,32.98
2023-05-15T09:16:30.006Z,32.85
2023-05-15T09:17:30.013Z,32.92
2023-05-15T09:18:30.021Z,32.99
2023-05-15T09:19:30.021Z,33.01
2023-05-15T09:20:30.019Z,33.00
2023-05-15T09:21:30.017Z,32.96
2023-05-15T09:22:30.019Z,32.99
2023-05-15T09:23:30.177Z,32.99
2023-05-15T09:24:30.022Z,32.96
2023-05-15T09:25:30.041Z,32.99
2023-05-15T09:26:30.029Z,32.57
2023-05-15T09:27:30.039Z,32.74
2023-05-15T09:28:30.083Z,32.80
2023-05-15T09:29:30.039Z,32.80
2023-05-15T09:30:30.043Z,32.52
2023-05-15T09:31:30.082Z,30.96
2023-05-15T09:32:30.105Z,31.21
2023-05-15T09:33:30.180Z,32.24
2023-05-15T09:34:30.107Z,32.41
2023-05-15T09:35:30.300Z,32.52
2023-05-15T09:36:30.173Z,32.59
2023-05-15T09:37:30.201Z,32.67
2023-05-15T09:38:30.193Z,32.65
2023-05-15T09:39:30.226Z,32.70
2023-05-15T09:40:30.232Z,32.66
2023-05-15T09:41:30.257Z,32.75
2023-05-15T09:42:30.294Z,32.78
2023-05-15T09:43:30.313Z,32.73
2023-05-15T09:44:30.328Z,32.80
2023-05-15T09:45:30.636Z,32.83
2023-05-15T09:46:30.482Z,32.77
2023-05-15T09:47:30.510Z,32.70
2023-05-15T09:48:30.479Z,32.72
2023-05-15T09:49:32.045Z,32.69
2023-05-15T09:50:30.409Z,32.74
2023-05-15T09:51:30.428Z,32.65
2023-05-15T09:52:30.411Z,32.67
2023-05-15T09:53:30.388Z,32.65
2023-05-15T09:54:30.381Z,32.56
2023-05-15T09:55:30.395Z,32.55
2023-05-15T09:56:30.363Z,32.42
2023-05-15T09:57:30.387Z,32.51
2023-05-15T09:58:30.372Z,32.58
2023-05-15T09:59:30.374Z,32.54
2023-05-15T10:00:32.538Z,32.60
2023-05-15T10:01:30.371Z,32.74
2023-05-15T10:02:30.380Z,32.60
2023-05-15T10:03:30.338Z,32.63
2023-05-15T10:04:30.358Z,32.67
2023-05-15T10:05:42.533Z,32.67
2023-05-15T10:06:31.337Z,32.68
2023-05-15T10:07:30.338Z,32.57
2023-05-15T10:08:30.328Z,32.62
2023-05-15T10:09:30.318Z,32.54
2023-05-15T10:10:30.323Z,32.49
2023-05-15T10:11:30.315Z,32.55
2023-05-15T10:12:30.308Z,32.41
2023-05-15T10:13:30.288Z,32.41
2023-05-15T10:14:30.291Z,32.38
2023-05-15T10:15:30.269Z,32.34
2023-05-15T10:16:30.293Z,31.96
2023-05-15T10:17:30.308Z,32.18
2023-05-15T10:18:30.740Z,32.21
2023-05-15T10:19:30.234Z,32.17
2023-05-15T10:20:30.251Z,32.19
2023-05-15T10:21:30.241Z,32.12
2023-05-15T10:22:30.237Z,30.98
2023-05-15T10:23:30.692Z,30.49
2023-05-15T10:24:30.217Z,30.44
2023-05-15T10:25:30.195Z,31.44
2023-05-15T10:26:30.222Z,31.87
2023-05-15T10:27:30.236Z,31.99
2023-05-15T10:28:30.206Z,32.05
2023-05-15T10:29:30.196Z,31.99
2023-05-15T10:30:30.173Z,32.08
2023-05-15T10:31:30.206Z,32.15
2023-05-15T10:32:30.256Z,32.20
2023-05-15T10:33:30.247Z,32.29
2023-05-15T10:34:30.267Z,32.35
2023-05-15T10:35:30.264Z,32.42
2023-05-15T10:36:30.307Z,32.38
2023-05-15T10:37:30.319Z,32.48
2023-05-15T10:38:30.337Z,32.51
2023-05-15T10:39:30.335Z,32.59
2023-05-15T10:40:30.345Z,32.66
2023-05-15T10:41:30.350Z,32.60
2023-05-15T10:42:30.348Z,32.69
2023-05-15T10:43:30.363Z,32.78
2023-05-15T10:44:30.361Z,32.75
2023-05-15T10:45:30.380Z,32.76
2023-05-15T10:46:30.410Z,32.71
2023-05-15T10:47:30.407Z,32.79
2023-05-15T10:48:30.402Z,32.84
2023-05-15T10:49:30.397Z,32.81
2023-05-15T10:50:30.396Z,32.91
2023-05-15T10:51:30.392Z,32.90
2023-05-15T10:52:30.420Z,32.74
2023-05-15T10:53:30.398Z,32.91
2023-05-15T10:54:30.394Z,32.81
2023-05-15T10:55:30.397Z,32.68
2023-05-15T10:56:30.409Z,32.77
2023-05-15T10:57:30.401Z,32.76
2023-05-15T10:58:30.401Z,32.86
2023-05-15T10:59:30.401Z,32.82
2023-05-15T11:00:30.385Z,32.76
2023-05-15T11:01:30.445Z,32.77
2023-05-15T11:02:30.414Z,32.76
2023-05-15T11:03:37.902Z,32.78
2023-05-15T11:04:31.398Z,32.80
2023-05-15T11:05:30.358Z,32.80
2023-05-15T11:06:30.368Z,32.79
2023-05-15T11:07:30.357Z,32.78
2023-05-15T11:08:30.361Z,32.62
2023-05-15T11:09:30.355Z,32.76
2023-05-15T11:10:30.334Z,32.73
2023-05-15T11:11:30.316Z,32.75
2023-05-15T11:12:30.323Z,32.84
2023-05-15T11:13:30.727Z,32.59
2023-05-15T11:14:30.292Z,32.60
2023-05-15T11:15:30.304Z,32.48
2023-05-15T11:16:30.300Z,32.47
2023-05-15T11:17:30.319Z,32.50
2023-05-15T11:18:30.748Z,32.54
2023-05-15T11:19:30.275Z,32.64
2023-05-15T11:20:30.271Z,32.41
2023-05-15T11:21:30.269Z,32.61
2023-05-15T11:22:30.247Z,32.58
2023-05-15T11:23:30.707Z,32.39
2023-05-15T11:24:30.248Z,32.36
2023-05-15T11:25:30.244Z,32.28
2023-05-15T11:26:30.222Z,32.15
2023-05-15T11:27:30.196Z,32.10
2023-05-15T11:28:31.523Z,32.07
2023-05-15T11:29:30.216Z,31.78
2023-05-15T11:30:30.190Z,31.76
2023-05-15T11:31:30.308Z,31.72
2023-05-15T11:32:30.208Z,31.79
2023-05-15T11:33:30.225Z,31.67
2023-05-15T11:34:30.241Z,31.47
2023-05-15T11:35:30.262Z,31.07
2023-05-15T11:36:30.282Z,30.83
2023-05-15T11:37:30.310Z,30.76
2023-05-15T11:38:30.316Z,30.64
2023-05-15T11:39:30.356Z,30.67
2023-05-15T11:40:30.376Z,30.51
2023-05-15T11:41:30.426Z,30.46
2023-05-15T11:42:30.436Z,30.26
2023-05-15T11:43:30.478Z,30.58
2023-05-15T11:44:30.524Z,30.19
2023-05-15T11:45:30.547Z,30.04
2023-05-15T11:46:30.633Z,30.09
2023-05-15T11:47:30.631Z,29.91
2023-05-15T11:48:30.675Z,29.91
2023-05-15T11:49:30.699Z,29.66
2023-05-15T11:50:30.750Z,29.78
2023-05-15T11:51:30.789Z,29.76
2023-05-15T11:52:30.835Z,29.64
2023-05-15T11:53:30.887Z,29.57
2023-05-15T11:54:30.933Z,29.48
2023-05-15T11:55:30.983Z,29.47
2023-05-15T11:56:31.010Z,29.59
2023-05-15T11:57:31.054Z,29.58
2023-05-15T11:58:31.141Z,29.63
2023-05-15T11:59:31.168Z,29.63
2023-05-15T12:00:31.238Z,29.71
2023-05-15T12:01:31.250Z,29.71
2023-05-15T12:02:31.419Z,29.75
2023-05-15T12:03:31.440Z,30.02
2023-05-15T12:04:31.407Z,29.83
2023-05-15T12:05:31.460Z,29.23
2023-05-15T12:06:31.516Z,29.12
2023-05-15T12:07:31.574Z,29.37
2023-05-15T12:08:31.717Z,28.77
2023-05-15T12:09:31.725Z,28.94
2023-05-15T12:10:31.731Z,29.77
2023-05-15T12:11:31.783Z,30.45
2023-05-15T12:12:31.822Z,30.62
2023-05-15T12:13:32.238Z,30.12
2023-05-15T12:14:31.990Z,29.94
2023-05-15T12:15:31.995Z,30.05
2023-05-15T12:16:32.080Z,29.67
2023-05-15T12:17:32.181Z,29.68
2023-05-15T12:18:32.204Z,29.89
2023-05-15T12:19:32.207Z,30.08
2023-05-15T12:20:32.289Z,30.16
2023-05-15T12:21:32.368Z,29.91
2023-05-15T12:22:32.414Z,30.05
2023-05-15T12:23:32.513Z,30.09
2023-05-15T12:24:32.540Z,29.91
2023-05-15T12:25:32.594Z,29.77
2023-05-15T12:26:32.645Z,29.79
2023-05-15T12:27:32.704Z,29.70
2023-05-15T12:28:32.801Z,29.74
2023-05-15T12:29:32.809Z,29.68
2023-05-15T12:30:32.883Z,29.74
2023-05-15T12:31:32.962Z,29.75
2023-05-15T12:32:32.995Z,29.74
2023-05-15T12:33:33.041Z,29.64
2023-05-15T12:34:33.096Z,29.60
2023-05-15T12:35:33.140Z,29.59
2023-05-15T12:36:33.226Z,29.58
2023-05-15T12:37:33.256Z,29.62
2023-05-15T12:38:33.302Z,29.59
2023-05-15T12:39:33.378Z,29.57
2023-05-15T12:40:33.440Z,29.53
2023-05-15T12:41:33.488Z,29.55
2023-05-15T12:42:33.527Z,29.42
2023-05-15T12:43:33.594Z,29.42
2023-05-15T12:44:33.636Z,29.40
2023-05-15T12:45:33.690Z,29.34
2023-05-15T12:46:33.822Z,29.27
2023-05-15T12:47:33.833Z,29.24
2023-05-15T12:48:33.902Z,29.28
2023-05-15T12:49:33.951Z,29.27
2023-05-15T12:50:34.018Z,29.14
2023-05-15T12:51:34.071Z,29.11
2023-05-15T12:52:34.124Z,29.14
2023-05-15T12:53:34.226Z,29.16